sensor_id;sensor_type;location;lat;lon;timestamp;P1;durP1;ratioP1;P2;durP2;ratioP2
15055;SDS011;7626;42.674;23.284;2023-12-20T15:42:17;31.67;;;21.70;;
15055;SDS011;7626;42.674;23.284;2023-12-20T15:47:33;130.20;;;71.17;;
15055;SDS011;7626;42.674;23.284;2023-12-20T15:50:01;130.80;;;71.93;;
15055;SDS011;7626;42.674;23.284;2023-12-20T15:52:29;137.93;;;70.70;;
15055;SDS011;7626;42.674;23.284;2023-12-20T15:54:56;122.13;;;68.17;;
15055;SDS011;7626;42.674;23.284;2023-12-20T15:57:23;117.57;;;68.07;;
15055;SDS011;7626;42.674;23.284;2023-12-20T15:59:50;119.80;;;72.40;;
15055;SDS011;7626;42.674;23.284;2023-12-20T16:02:17;123.30;;;74.43;;
15055;SDS011;7626;42.674;23.284;2023-12-20T16:04:45;130.53;;;77.87;;
15055;SDS011;7626;42.674;23.284;2023-12-20T16:07:12;123.53;;;75.67;;
15055;SDS011;7626;42.674;23.284;2023-12-20T16:09:39;131.47;;;78.50;;
15055;SDS011;7626;42.674;23.284;2023-12-20T16:12:06;128.03;;;77.97;;
15055;SDS011;7626;42.674;23.284;2023-12-20T16:14:34;123.63;;;76.57;;
15055;SDS011;7626;42.674;23.284;2023-12-20T16:17:00;131.17;;;81.17;;
15055;SDS011;7626;42.674;23.284;2023-12-20T16:19:27;135.90;;;84.33;;
15055;SDS011;7626;42.674;23.284;2023-12-20T16:21:56;136.97;;;84.27;;
15055;SDS011;7626;42.674;23.284;2023-12-20T16:24:22;144.83;;;85.93;;
15055;SDS011;7626;42.674;23.284;2023-12-20T16:26:49;146.20;;;85.03;;
15055;SDS011;7626;42.674;23.284;2023-12-20T16:29:16;140.53;;;85.80;;
15055;SDS011;7626;42.674;23.284;2023-12-20T16:31:43;141.17;;;87.00;;
15055;SDS011;7626;42.674;23.284;2023-12-20T16:34:10;142.63;;;89.10;;
15055;SDS011;7626;42.674;23.284;2023-12-20T16:36:48;148.63;;;89.83;;
15055;SDS011;7626;42.674;23.284;2023-12-20T16:39:17;141.83;;;86.73;;
15055;SDS011;7626;42.674;23.284;2023-12-20T16:41:45;142.07;;;90.47;;
15055;SDS011;7626;42.674;23.284;2023-12-20T16:46:22;153.82;;;94.97;;
15055;SDS011;7626;42.674;23.284;2023-12-20T16:48:50;130.17;;;81.87;;
15055;SDS011;7626;42.674;23.284;2023-12-20T16:51:18;139.87;;;83.30;;
15055;SDS011;7626;42.674;23.284;2023-12-20T16:53:46;137.90;;;84.40;;
15055;SDS011;7626;42.674;23.284;2023-12-20T16:56:14;138.00;;;85.77;;
15055;SDS011;7626;42.674;23.284;2023-12-20T16:58:41;141.70;;;87.93;;
15055;SDS011;7626;42.674;23.284;2023-12-20T17:01:09;134.90;;;87.07;;
15055;SDS011;7626;42.674;23.284;2023-12-20T17:03:40;146.97;;;89.83;;
15055;SDS011;7626;42.674;23.284;2023-12-20T17:06:08;150.93;;;92.53;;
15055;SDS011;7626;42.674;23.284;2023-12-20T17:08:36;140.63;;;88.67;;
15055;SDS011;7626;42.674;23.284;2023-12-20T17:11:04;146.63;;;90.77;;
15055;SDS011;7626;42.674;23.284;2023-12-20T17:13:32;143.43;;;91.87;;
15055;SDS011;7626;42.674;23.284;2023-12-20T17:16:03;145.17;;;92.97;;
15055;SDS011;7626;42.674;23.284;2023-12-20T17:18:33;148.77;;;92.93;;
15055;SDS011;7626;42.674;23.284;2023-12-20T17:21:04;154.23;;;94.90;;
15055;SDS011;7626;42.674;23.284;2023-12-20T17:23:33;164.37;;;97.43;;
15055;SDS011;7626;42.674;23.284;2023-12-20T17:26:03;157.23;;;97.27;;
15055;SDS011;7626;42.674;23.284;2023-12-20T17:28:32;152.53;;;97.70;;
15055;SDS011;7626;42.674;23.284;2023-12-20T17:31:08;159.10;;;99.83;;
15055;SDS011;7626;42.674;23.284;2023-12-20T17:33:36;169.60;;;100.20;;
15055;SDS011;7626;42.674;23.284;2023-12-20T17:36:09;170.97;;;103.00;;
15055;SDS011;7626;42.674;23.284;2023-12-20T17:38:39;176.90;;;106.60;;
15055;SDS011;7626;42.674;23.284;2023-12-20T17:41:07;169.23;;;101.90;;
15055;SDS011;7626;42.674;23.284;2023-12-20T17:43:36;181.90;;;105.00;;
15055;SDS011;7626;42.674;23.284;2023-12-20T17:46:03;181.77;;;104.93;;
15055;SDS011;7626;42.674;23.284;2023-12-20T17:48:30;172.97;;;108.73;;
15055;SDS011;7626;42.674;23.284;2023-12-20T17:50:56;168.07;;;105.60;;
15055;SDS011;7626;42.674;23.284;2023-12-20T17:53:25;179.20;;;106.23;;
15055;SDS011;7626;42.674;23.284;2023-12-20T17:55:53;173.37;;;105.03;;
15055;SDS011;7626;42.674;23.284;2023-12-20T17:58:20;182.40;;;110.53;;
15055;SDS011;7626;42.674;23.284;2023-12-20T18:00:47;190.43;;;112.63;;
15055;SDS011;7626;42.674;23.284;2023-12-20T18:03:28;191.77;;;118.10;;
15055;SDS011;7626;42.674;23.284;2023-12-20T18:05:56;190.77;;;116.10;;
15055;SDS011;7626;42.674;23.284;2023-12-20T18:08:23;191.70;;;122.30;;
15055;SDS011;7626;42.674;23.284;2023-12-20T18:10:52;195.83;;;120.70;;
15055;SDS011;7626;42.674;23.284;2023-12-20T18:13:22;190.57;;;118.20;;
15055;SDS011;7626;42.674;23.284;2023-12-20T18:15:49;190.77;;;117.67;;
15055;SDS011;7626;42.674;23.284;2023-12-20T18:18:17;194.37;;;117.57;;
15055;SDS011;7626;42.674;23.284;2023-12-20T18:20:44;183.27;;;112.80;;
15055;SDS011;7626;42.674;23.284;2023-12-20T18:23:12;190.00;;;113.67;;
15055;SDS011;7626;42.674;23.284;2023-12-20T18:25:40;186.40;;;112.43;;
15055;SDS011;7626;42.674;23.284;2023-12-20T18:28:09;181.40;;;110.47;;
15055;SDS011;7626;42.674;23.284;2023-12-20T18:30:37;180.77;;;108.87;;
15055;SDS011;7626;42.674;23.284;2023-12-20T18:33:06;185.43;;;109.03;;
15055;SDS011;7626;42.674;23.284;2023-12-20T18:35:34;170.47;;;105.13;;
15055;SDS011;7626;42.674;23.284;2023-12-20T18:38:03;180.73;;;107.27;;
15055;SDS011;7626;42.674;23.284;2023-12-20T18:40:32;173.83;;;104.63;;
15055;SDS011;7626;42.674;23.284;2023-12-20T18:42:59;177.23;;;100.20;;
15055;SDS011;7626;42.674;23.284;2023-12-20T18:45:29;176.57;;;104.80;;
15055;SDS011;7626;42.674;23.284;2023-12-20T18:47:57;169.63;;;100.13;;
15055;SDS011;7626;42.674;23.284;2023-12-20T18:50:24;164.07;;;97.17;;
15055;SDS011;7626;42.674;23.284;2023-12-20T18:52:51;156.60;;;94.43;;
15055;SDS011;7626;42.674;23.284;2023-12-20T18:55:19;161.70;;;92.23;;
15055;SDS011;7626;42.674;23.284;2023-12-20T18:57:46;161.23;;;93.90;;
15055;SDS011;7626;42.674;23.284;2023-12-20T19:00:15;154.93;;;88.20;;
15055;SDS011;7626;42.674;23.284;2023-12-20T19:02:44;152.00;;;85.57;;
15055;SDS011;7626;42.674;23.284;2023-12-20T19:05:12;148.50;;;83.80;;
15055;SDS011;7626;42.674;23.284;2023-12-20T19:07:39;142.97;;;84.30;;
15055;SDS011;7626;42.674;23.284;2023-12-20T19:10:08;133.93;;;80.60;;
15055;SDS011;7626;42.674;23.284;2023-12-20T19:12:35;140.27;;;82.50;;
15055;SDS011;7626;42.674;23.284;2023-12-20T19:15:02;143.33;;;82.27;;
15055;SDS011;7626;42.674;23.284;2023-12-20T19:17:31;137.60;;;80.97;;
15055;SDS011;7626;42.674;23.284;2023-12-20T19:20:01;139.60;;;79.17;;
15055;SDS011;7626;42.674;23.284;2023-12-20T19:22:31;141.90;;;80.63;;
15055;SDS011;7626;42.674;23.284;2023-12-20T19:25:00;135.83;;;80.57;;
15055;SDS011;7626;42.674;23.284;2023-12-20T19:27:32;141.43;;;82.83;;
15055;SDS011;7626;42.674;23.284;2023-12-20T19:30:00;137.07;;;81.50;;
15055;SDS011;7626;42.674;23.284;2023-12-20T19:32:29;140.97;;;82.07;;
15055;SDS011;7626;42.674;23.284;2023-12-20T19:34:58;140.30;;;81.13;;
15055;SDS011;7626;42.674;23.284;2023-12-20T19:37:30;146.13;;;84.37;;
15055;SDS011;7626;42.674;23.284;2023-12-20T19:40:07;147.83;;;86.40;;
15055;SDS011;7626;42.674;23.284;2023-12-20T19:42:38;139.00;;;82.00;;
15055;SDS011;7626;42.674;23.284;2023-12-20T19:45:09;131.83;;;80.80;;
15055;SDS011;7626;42.674;23.284;2023-12-20T19:47:38;133.50;;;80.17;;
15055;SDS011;7626;42.674;23.284;2023-12-20T19:50:06;146.00;;;84.80;;
15055;SDS011;7626;42.674;23.284;2023-12-20T19:52:40;146.73;;;82.57;;
15055;SDS011;7626;42.674;23.284;2023-12-20T19:55:07;132.87;;;80.53;;
15055;SDS011;7626;42.674;23.284;2023-12-20T19:57:35;133.90;;;80.47;;
15055;SDS011;7626;42.674;23.284;2023-12-20T20:00:07;140.83;;;81.70;;
15055;SDS011;7626;42.674;23.284;2023-12-20T20:02:36;132.57;;;79.17;;
15055;SDS011;7626;42.674;23.284;2023-12-20T20:05:04;136.23;;;82.23;;
15055;SDS011;7626;42.674;23.284;2023-12-20T20:07:35;138.13;;;82.40;;
15055;SDS011;7626;42.674;23.284;2023-12-20T20:10:04;141.43;;;80.80;;
15055;SDS011;7626;42.674;23.284;2023-12-20T20:12:33;131.13;;;78.80;;
15055;SDS011;7626;42.674;23.284;2023-12-20T20:15:04;139.70;;;81.43;;
15055;SDS011;7626;42.674;23.284;2023-12-20T20:17:33;135.93;;;78.63;;
15055;SDS011;7626;42.674;23.284;2023-12-20T20:20:02;137.97;;;80.53;;
15055;SDS011;7626;42.674;23.284;2023-12-20T20:22:31;132.83;;;77.93;;
15055;SDS011;7626;42.674;23.284;2023-12-20T20:25:01;132.83;;;76.13;;
15055;SDS011;7626;42.674;23.284;2023-12-20T20:27:30;132.93;;;78.03;;
15055;SDS011;7626;42.674;23.284;2023-12-20T20:30:02;133.97;;;76.17;;
15055;SDS011;7626;42.674;23.284;2023-12-20T20:32:29;133.27;;;76.93;;
15055;SDS011;7626;42.674;23.284;2023-12-20T20:34:57;136.10;;;76.37;;
15055;SDS011;7626;42.674;23.284;2023-12-20T20:37:24;133.50;;;75.90;;
15055;SDS011;7626;42.674;23.284;2023-12-20T20:39:51;137.90;;;79.13;;
15055;SDS011;7626;42.674;23.284;2023-12-20T20:42:21;134.07;;;76.80;;
15055;SDS011;7626;42.674;23.284;2023-12-20T20:44:48;138.53;;;77.97;;
15055;SDS011;7626;42.674;23.284;2023-12-20T20:47:18;132.47;;;74.93;;
15055;SDS011;7626;42.674;23.284;2023-12-20T20:49:45;132.13;;;75.83;;
15055;SDS011;7626;42.674;23.284;2023-12-20T20:52:13;134.27;;;77.03;;
15055;SDS011;7626;42.674;23.284;2023-12-20T20:54:41;133.40;;;77.10;;
15055;SDS011;7626;42.674;23.284;2023-12-20T20:57:09;135.50;;;76.30;;
15055;SDS011;7626;42.674;23.284;2023-12-20T20:59:37;139.73;;;77.63;;
15055;SDS011;7626;42.674;23.284;2023-12-20T21:02:08;146.20;;;78.67;;
15055;SDS011;7626;42.674;23.284;2023-12-20T21:04:37;135.80;;;76.80;;
15055;SDS011;7626;42.674;23.284;2023-12-20T21:07:05;126.40;;;75.90;;
15055;SDS011;7626;42.674;23.284;2023-12-20T21:09:34;138.13;;;75.60;;
15055;SDS011;7626;42.674;23.284;2023-12-20T21:12:03;128.57;;;75.53;;
15055;SDS011;7626;42.674;23.284;2023-12-20T21:14:30;134.30;;;76.27;;
15055;SDS011;7626;42.674;23.284;2023-12-20T21:17:00;132.97;;;77.63;;
15055;SDS011;7626;42.674;23.284;2023-12-20T21:19:27;130.47;;;76.50;;
15055;SDS011;7626;42.674;23.284;2023-12-20T21:21:55;126.60;;;73.93;;
15055;SDS011;7626;42.674;23.284;2023-12-20T21:24:25;132.93;;;76.37;;
15055;SDS011;7626;42.674;23.284;2023-12-20T21:26:55;123.87;;;73.00;;
15055;SDS011;7626;42.674;23.284;2023-12-20T21:29:22;128.10;;;76.83;;
15055;SDS011;7626;42.674;23.284;2023-12-20T21:31:50;122.40;;;73.93;;
15055;SDS011;7626;42.674;23.284;2023-12-20T21:34:19;121.57;;;73.70;;
15055;SDS011;7626;42.674;23.284;2023-12-20T21:36:49;126.77;;;73.47;;
15055;SDS011;7626;42.674;23.284;2023-12-20T21:39:17;126.77;;;76.30;;
15055;SDS011;7626;42.674;23.284;2023-12-20T21:41:49;123.87;;;75.53;;
15055;SDS011;7626;42.674;23.284;2023-12-20T21:44:17;119.27;;;74.83;;
15055;SDS011;7626;42.674;23.284;2023-12-20T21:46:46;122.87;;;75.63;;
15055;SDS011;7626;42.674;23.284;2023-12-20T21:49:14;121.43;;;73.53;;
15055;SDS011;7626;42.674;23.284;2023-12-20T21:51:45;122.07;;;74.53;;
15055;SDS011;7626;42.674;23.284;2023-12-20T21:54:12;125.13;;;75.07;;
15055;SDS011;7626;42.674;23.284;2023-12-20T21:56:40;117.43;;;74.23;;
15055;SDS011;7626;42.674;23.284;2023-12-20T21:59:09;126.20;;;77.10;;
15055;SDS011;7626;42.674;23.284;2023-12-20T22:01:40;122.63;;;76.30;;
15055;SDS011;7626;42.674;23.284;2023-12-20T22:04:09;124.83;;;74.27;;
15055;SDS011;7626;42.674;23.284;2023-12-20T22:06:37;123.17;;;75.30;;
15055;SDS011;7626;42.674;23.284;2023-12-20T22:09:07;122.07;;;74.33;;
15055;SDS011;7626;42.674;23.284;2023-12-20T22:11:35;117.73;;;73.90;;
15055;SDS011;7626;42.674;23.284;2023-12-20T22:14:03;117.23;;;73.67;;
15055;SDS011;7626;42.674;23.284;2023-12-20T22:16:32;119.33;;;76.97;;
15055;SDS011;7626;42.674;23.284;2023-12-20T22:19:03;118.93;;;75.93;;
15055;SDS011;7626;42.674;23.284;2023-12-20T22:21:31;117.80;;;73.90;;
15055;SDS011;7626;42.674;23.284;2023-12-20T22:23:59;120.33;;;72.33;;
15055;SDS011;7626;42.674;23.284;2023-12-20T22:26:29;123.93;;;75.47;;
15055;SDS011;7626;42.674;23.284;2023-12-20T22:28:57;119.57;;;74.23;;
15055;SDS011;7626;42.674;23.284;2023-12-20T22:31:26;119.33;;;73.07;;
15055;SDS011;7626;42.674;23.284;2023-12-20T22:33:54;123.43;;;72.97;;
15055;SDS011;7626;42.674;23.284;2023-12-20T22:36:25;119.43;;;74.40;;
15055;SDS011;7626;42.674;23.284;2023-12-20T22:38:54;122.23;;;74.53;;
15055;SDS011;7626;42.674;23.284;2023-12-20T22:41:24;123.53;;;72.97;;
15055;SDS011;7626;42.674;23.284;2023-12-20T22:43:52;118.97;;;73.60;;
15055;SDS011;7626;42.674;23.284;2023-12-20T22:46:27;119.43;;;73.77;;
15055;SDS011;7626;42.674;23.284;2023-12-20T22:48:56;116.87;;;72.40;;
15055;SDS011;7626;42.674;23.284;2023-12-20T22:51:25;121.10;;;73.43;;
15055;SDS011;7626;42.674;23.284;2023-12-20T22:53:55;118.03;;;72.60;;
15055;SDS011;7626;42.674;23.284;2023-12-20T22:56:23;123.97;;;74.73;;
15055;SDS011;7626;42.674;23.284;2023-12-20T22:58:57;124.00;;;77.60;;
15055;SDS011;7626;42.674;23.284;2023-12-20T23:01:26;126.53;;;79.30;;
15055;SDS011;7626;42.674;23.284;2023-12-20T23:03:54;133.47;;;81.43;;
15055;SDS011;7626;42.674;23.284;2023-12-20T23:06:22;127.97;;;81.47;;
15055;SDS011;7626;42.674;23.284;2023-12-20T23:08:53;129.73;;;82.90;;
15055;SDS011;7626;42.674;23.284;2023-12-20T23:11:24;131.87;;;81.17;;
15055;SDS011;7626;42.674;23.284;2023-12-20T23:13:53;130.53;;;82.13;;
15055;SDS011;7626;42.674;23.284;2023-12-20T23:16:22;128.70;;;78.30;;
15055;SDS011;7626;42.674;23.284;2023-12-20T23:18:50;130.83;;;82.67;;
15055;SDS011;7626;42.674;23.284;2023-12-20T23:21:19;133.20;;;82.63;;
15055;SDS011;7626;42.674;23.284;2023-12-20T23:23:47;126.10;;;80.10;;
15055;SDS011;7626;42.674;23.284;2023-12-20T23:26:15;130.23;;;81.40;;
15055;SDS011;7626;42.674;23.284;2023-12-20T23:28:43;133.57;;;83.80;;
15055;SDS011;7626;42.674;23.284;2023-12-20T23:31:21;124.33;;;79.10;;
15055;SDS011;7626;42.674;23.284;2023-12-20T23:33:51;128.53;;;75.87;;
15055;SDS011;7626;42.674;23.284;2023-12-20T23:36:19;125.53;;;78.27;;
15055;SDS011;7626;42.674;23.284;2023-12-20T23:38:47;124.23;;;77.40;;
15055;SDS011;7626;42.674;23.284;2023-12-20T23:41:15;123.47;;;76.90;;
15055;SDS011;7626;42.674;23.284;2023-12-20T23:43:43;120.10;;;77.40;;
15055;SDS011;7626;42.674;23.284;2023-12-20T23:46:12;124.60;;;77.70;;
15055;SDS011;7626;42.674;23.284;2023-12-20T23:48:40;124.67;;;74.43;;
15055;SDS011;7626;42.674;23.284;2023-12-20T23:51:09;120.87;;;75.07;;
15055;SDS011;7626;42.674;23.284;2023-12-20T23:53:37;122.60;;;74.80;;
15055;SDS011;7626;42.674;23.284;2023-12-20T23:56:05;115.80;;;72.07;;
15055;SDS011;7626;42.674;23.284;2023-12-20T23:58:34;109.00;;;68.53;;
